RYR24TQ GCLP-LEMD
Flight info
| Callsign | RYR24TQ |
|---|---|
| Flight time | 2h 9m |
| Altitude | 36000 |
| Route | VASTO UN858 AKUDA DCT GIMAL DCT PESAS DCT PARKA DCT SOTUK |
| Aircraft | B738/M-SDE2E3FGHIRWXY/LB1 |
Departure
| Time | 2026-05-04 14:30 |
|---|---|
| Airport | Gran Canaria Airport (GCLP) |
Arrival
| Time | 2026-05-04 16:40 |
|---|---|
| Airport | Adolfo Suárez Madrid–Barajas Airport (LEMD) |
| Time | Latitude | Longitude | Altitude | Speed | Heading |
|---|---|---|---|---|---|
| 2026-05-04 14:11 | 27.93612 | -15.38752 | 83 ft | 0 kts | 291° |
| 2026-05-04 14:25 | 27.93614 | -15.38755 | 81 ft | 4 kts | 291° |
| 2026-05-04 14:25 | 27.93624 | -15.38803 | 86 ft | 7 kts | 260° |
| 2026-05-04 14:26 | 27.93567 | -15.38849 | 86 ft | 14 kts | 200° |
| 2026-05-04 14:26 | 27.93469 | -15.38872 | 83 ft | 15 kts | 163° |
| 2026-05-04 14:26 | 27.93408 | -15.38768 | 68 ft | 14 kts | 143° |
| 2026-05-04 14:26 | 27.93314 | -15.38795 | 68 ft | 15 kts | 202° |
| 2026-05-04 14:27 | 27.93210 | -15.38840 | 69 ft | 18 kts | 201° |
| 2026-05-04 14:27 | 27.93081 | -15.38904 | 76 ft | 22 kts | 206° |
| 2026-05-04 14:27 | 27.92924 | -15.38974 | 82 ft | 27 kts | 201° |
| 2026-05-04 14:27 | 27.92743 | -15.39054 | 89 ft | 28 kts | 201° |
| 2026-05-04 14:28 | 27.92563 | -15.39134 | 92 ft | 27 kts | 201° |
| 2026-05-04 14:28 | 27.92397 | -15.39206 | 96 ft | 25 kts | 201° |
| 2026-05-04 14:28 | 27.92240 | -15.39276 | 99 ft | 23 kts | 201° |
| 2026-05-04 14:28 | 27.92082 | -15.39303 | 92 ft | 24 kts | 176° |
| 2026-05-04 14:29 | 27.91878 | -15.39164 | 85 ft | 13 kts | 111° |
| 2026-05-04 14:29 | 27.91926 | -15.38988 | 65 ft | 19 kts | 21° |
| 2026-05-04 14:30 | 27.92324 | -15.38812 | 58 ft | 106 kts | 21° |
| 2026-05-04 14:30 | 27.93261 | -15.38393 | 119 ft | 176 kts | 21° |
| 2026-05-04 14:30 | 27.95797 | -15.37262 | 2034 ft | 199 kts | 21° |
| 2026-05-04 14:31 | 27.97168 | -15.36703 | 2604 ft | 219 kts | 20° |
| 2026-05-04 14:31 | 28.00220 | -15.35482 | 3516 ft | 257 kts | 19° |
| 2026-05-04 14:32 | 28.03670 | -15.34101 | 4008 ft | 266 kts | 19° |
| 2026-05-04 14:32 | 28.05414 | -15.33368 | 4524 ft | 268 kts | 20° |
| 2026-05-04 14:32 | 28.07148 | -15.32611 | 5327 ft | 274 kts | 19° |
| 2026-05-04 14:32 | 28.08949 | -15.31824 | 6133 ft | 280 kts | 19° |
| 2026-05-04 14:33 | 28.10778 | -15.31027 | 6934 ft | 284 kts | 19° |
| 2026-05-04 14:33 | 28.12638 | -15.30217 | 7681 ft | 289 kts | 18° |
| 2026-05-04 14:33 | 28.14542 | -15.29404 | 8414 ft | 294 kts | 15° |
| 2026-05-04 14:33 | 28.16522 | -15.28767 | 9186 ft | 298 kts | 10° |
| 2026-05-04 14:34 | 28.18551 | -15.28212 | 9960 ft | 302 kts | 8° |
| 2026-05-04 14:34 | 28.20612 | -15.27658 | 10660 ft | 307 kts | 8° |
| 2026-05-04 14:34 | 28.22706 | -15.27086 | 11345 ft | 312 kts | 8° |
| 2026-05-04 14:34 | 28.24835 | -15.26491 | 12028 ft | 318 kts | 8° |
| 2026-05-04 14:35 | 28.26979 | -15.25884 | 12714 ft | 323 kts | 8° |
| 2026-05-04 14:35 | 28.29174 | -15.25258 | 13419 ft | 328 kts | 7° |
| 2026-05-04 14:35 | 28.31412 | -15.24615 | 14103 ft | 333 kts | 9° |
| 2026-05-04 14:35 | 28.33619 | -15.23650 | 14759 ft | 344 kts | 22° |
| 2026-05-04 14:36 | 28.35683 | -15.22229 | 15461 ft | 349 kts | 28° |
| 2026-05-04 14:36 | 28.37696 | -15.20718 | 16131 ft | 352 kts | 30° |
| 2026-05-04 14:36 | 28.39743 | -15.19156 | 16841 ft | 354 kts | 30° |
| 2026-05-04 14:36 | 28.41795 | -15.17590 | 17558 ft | 356 kts | 30° |
| 2026-05-04 14:37 | 28.43874 | -15.16012 | 18178 ft | 361 kts | 30° |
| 2026-05-04 14:37 | 28.45981 | -15.14421 | 18736 ft | 365 kts | 30° |
| 2026-05-04 14:37 | 28.48117 | -15.12814 | 19296 ft | 369 kts | 29° |
| 2026-05-04 14:37 | 28.50274 | -15.11196 | 19842 ft | 373 kts | 29° |
| 2026-05-04 14:38 | 28.52427 | -15.09580 | 20376 ft | 377 kts | 29° |
| 2026-05-04 14:38 | 28.54634 | -15.07927 | 20919 ft | 381 kts | 29° |
| 2026-05-04 14:38 | 28.56863 | -15.06255 | 21455 ft | 385 kts | 29° |
| 2026-05-04 14:38 | 28.59111 | -15.04569 | 21988 ft | 389 kts | 28° |
| 2026-05-04 14:39 | 28.61354 | -15.02886 | 22507 ft | 392 kts | 28° |
| 2026-05-04 14:39 | 28.63650 | -15.01162 | 23025 ft | 396 kts | 28° |
| 2026-05-04 14:39 | 28.65973 | -14.99416 | 23543 ft | 400 kts | 28° |
| 2026-05-04 14:40 | 28.70467 | -14.96035 | 24336 ft | 404 kts | 28° |
| 2026-05-04 14:40 | 28.72819 | -14.94264 | 24639 ft | 407 kts | 28° |
| 2026-05-04 14:40 | 28.75193 | -14.92476 | 24926 ft | 409 kts | 28° |
| 2026-05-04 14:40 | 28.77585 | -14.90674 | 25219 ft | 412 kts | 28° |
| 2026-05-04 14:41 | 28.79986 | -14.88864 | 25510 ft | 414 kts | 28° |
| 2026-05-04 14:41 | 28.82398 | -14.87044 | 25808 ft | 416 kts | 28° |
| 2026-05-04 14:41 | 28.87244 | -14.83387 | 26360 ft | 421 kts | 28° |
| 2026-05-04 14:42 | 28.92147 | -14.79682 | 27032 ft | 421 kts | 28° |
| 2026-05-04 14:42 | 28.94564 | -14.77855 | 27389 ft | 421 kts | 28° |
| 2026-05-04 14:42 | 28.97016 | -14.75999 | 27724 ft | 421 kts | 28° |
| 2026-05-04 14:43 | 28.99463 | -14.74147 | 28032 ft | 422 kts | 27° |
| 2026-05-04 14:43 | 29.01911 | -14.72292 | 28398 ft | 421 kts | 27° |
| 2026-05-04 14:43 | 29.04320 | -14.70464 | 28816 ft | 418 kts | 27° |
| 2026-05-04 14:43 | 29.06746 | -14.68624 | 29135 ft | 418 kts | 27° |
| 2026-05-04 14:44 | 29.09181 | -14.66777 | 29401 ft | 420 kts | 27° |
| 2026-05-04 14:44 | 29.11617 | -14.64927 | 29707 ft | 420 kts | 27° |
| 2026-05-04 14:44 | 29.14045 | -14.63083 | 30040 ft | 419 kts | 27° |
| 2026-05-04 14:44 | 29.16476 | -14.61234 | 30308 ft | 419 kts | 27° |
| 2026-05-04 14:45 | 29.18910 | -14.59383 | 30513 ft | 420 kts | 27° |
| 2026-05-04 14:45 | 29.21323 | -14.57547 | 30716 ft | 421 kts | 27° |
| 2026-05-04 14:45 | 29.23765 | -14.55688 | 30962 ft | 421 kts | 27° |
| 2026-05-04 14:45 | 29.26204 | -14.53828 | 31201 ft | 420 kts | 27° |
| 2026-05-04 14:46 | 29.28652 | -14.51962 | 31403 ft | 421 kts | 27° |
| 2026-05-04 14:46 | 29.31077 | -14.50112 | 31589 ft | 422 kts | 26° |
| 2026-05-04 14:46 | 29.33530 | -14.48239 | 31843 ft | 422 kts | 27° |
| 2026-05-04 14:46 | 29.35944 | -14.46395 | 32079 ft | 421 kts | 27° |
| 2026-05-04 14:47 | 29.38385 | -14.44529 | 32262 ft | 422 kts | 27° |
| 2026-05-04 14:47 | 29.40836 | -14.42655 | 32435 ft | 423 kts | 27° |
| 2026-05-04 14:47 | 29.43291 | -14.40777 | 32636 ft | 423 kts | 27° |
| 2026-05-04 14:47 | 29.45742 | -14.38900 | 32836 ft | 423 kts | 26° |
| 2026-05-04 14:48 | 29.48191 | -14.37024 | 32997 ft | 424 kts | 26° |
| 2026-05-04 14:48 | 29.50619 | -14.35163 | 33172 ft | 424 kts | 26° |
| 2026-05-04 14:48 | 29.53081 | -14.33274 | 33354 ft | 424 kts | 26° |
| 2026-05-04 14:48 | 29.55532 | -14.31393 | 33520 ft | 424 kts | 26° |
| 2026-05-04 14:49 | 29.57992 | -14.29504 | 33682 ft | 425 kts | 26° |
| 2026-05-04 14:49 | 29.60428 | -14.27632 | 33847 ft | 425 kts | 26° |
| 2026-05-04 14:49 | 29.62883 | -14.25745 | 34035 ft | 425 kts | 26° |
| 2026-05-04 14:49 | 29.65341 | -14.23853 | 34203 ft | 424 kts | 26° |
| 2026-05-04 14:50 | 29.67798 | -14.21960 | 34342 ft | 424 kts | 26° |
| 2026-05-04 14:50 | 29.70248 | -14.20078 | 34192 ft | 434 kts | 26° |
| 2026-05-04 14:50 | 29.75330 | -14.16171 | 34258 ft | 440 kts | 27° |
| 2026-05-04 14:51 | 29.77870 | -14.14208 | 34359 ft | 442 kts | 27° |
| 2026-05-04 14:51 | 29.80457 | -14.12213 | 34160 ft | 452 kts | 27° |
| 2026-05-04 14:51 | 29.83079 | -14.10191 | 34593 ft | 452 kts | 32° |
| 2026-05-04 14:51 | 29.85670 | -14.08182 | 34465 ft | 450 kts | 27° |
| 2026-05-04 14:52 | 29.88269 | -14.06169 | 35076 ft | 444 kts | 33° |
| 2026-05-04 14:52 | 29.90820 | -14.04187 | 34861 ft | 444 kts | 27° |
| 2026-05-04 14:52 | 29.96017 | -14.00163 | 34832 ft | 452 kts | 27° |
| 2026-05-04 14:53 | 30.01216 | -13.96132 | 35366 ft | 454 kts | 32° |
| 2026-05-04 14:53 | 30.03776 | -13.94142 | 35521 ft | 444 kts | 30° |
| 2026-05-04 14:53 | 30.06368 | -13.92127 | 35502 ft | 452 kts | 27° |
| 2026-05-04 14:54 | 30.08990 | -13.90090 | 35664 ft | 454 kts | 27° |
| 2026-05-04 14:54 | 30.11617 | -13.88044 | 35892 ft | 454 kts | 27° |
| 2026-05-04 14:54 | 30.14238 | -13.86001 | 36082 ft | 455 kts | 27° |
| 2026-05-04 14:54 | 30.16862 | -13.83957 | 36077 ft | 462 kts | 27° |
| 2026-05-04 14:55 | 30.22270 | -13.79744 | 36114 ft | 474 kts | 27° |
| 2026-05-04 14:55 | 30.26891 | -13.76137 | 36102 ft | 486 kts | 27° |
| 2026-05-04 14:56 | 30.32578 | -13.71688 | 36103 ft | 498 kts | 28° |
| 2026-05-04 14:56 | 30.38360 | -13.67157 | 36102 ft | 509 kts | 28° |
| 2026-05-04 14:57 | 30.44277 | -13.62509 | 36087 ft | 514 kts | 28° |
| 2026-05-04 14:57 | 30.49532 | -13.58376 | 36072 ft | 508 kts | 28° |
| 2026-05-04 14:58 | 30.55346 | -13.53780 | 36107 ft | 503 kts | 28° |
| 2026-05-04 14:58 | 30.61090 | -13.49205 | 36081 ft | 501 kts | 28° |
| 2026-05-04 14:59 | 30.66836 | -13.44619 | 36082 ft | 500 kts | 28° |
| 2026-05-04 15:00 | 30.75408 | -13.37775 | 36091 ft | 500 kts | 28° |
| 2026-05-04 15:00 | 30.81197 | -13.33147 | 36106 ft | 507 kts | 28° |
| 2026-05-04 15:01 | 30.89971 | -13.26111 | 36097 ft | 511 kts | 28° |
| 2026-05-04 15:01 | 30.95808 | -13.21445 | 36087 ft | 511 kts | 28° |
| 2026-05-04 15:02 | 31.01687 | -13.16784 | 36083 ft | 509 kts | 28° |
| 2026-05-04 15:02 | 31.07530 | -13.12145 | 36083 ft | 506 kts | 28° |
| 2026-05-04 15:03 | 31.13342 | -13.07520 | 36139 ft | 512 kts | 28° |
| 2026-05-04 15:03 | 31.19299 | -13.02780 | 36102 ft | 521 kts | 28° |
| 2026-05-04 15:04 | 31.25329 | -12.97969 | 36099 ft | 527 kts | 28° |
| 2026-05-04 15:04 | 31.31369 | -12.93136 | 36096 ft | 530 kts | 28° |
| 2026-05-04 15:05 | 31.37472 | -12.88240 | 36092 ft | 530 kts | 28° |
| 2026-05-04 15:05 | 31.43529 | -12.83372 | 36104 ft | 525 kts | 28° |
| 2026-05-04 15:06 | 31.49504 | -12.78566 | 36086 ft | 523 kts | 28° |
| 2026-05-04 15:07 | 31.58488 | -12.71332 | 36086 ft | 520 kts | 28° |
| 2026-05-04 15:07 | 31.64431 | -12.66537 | 36099 ft | 520 kts | 28° |
| 2026-05-04 15:08 | 31.70401 | -12.61712 | 36094 ft | 521 kts | 28° |
| 2026-05-04 15:08 | 31.76383 | -12.56870 | 36097 ft | 521 kts | 29° |
| 2026-05-04 15:09 | 31.82355 | -12.52026 | 36092 ft | 521 kts | 29° |
| 2026-05-04 15:09 | 31.88305 | -12.47193 | 36098 ft | 521 kts | 29° |
| 2026-05-04 15:10 | 31.97268 | -12.39897 | 36099 ft | 522 kts | 29° |
| 2026-05-04 15:11 | 32.06189 | -12.32618 | 36106 ft | 521 kts | 29° |
| 2026-05-04 15:11 | 32.12157 | -12.27739 | 36098 ft | 520 kts | 29° |
| 2026-05-04 15:12 | 32.18106 | -12.22868 | 36098 ft | 520 kts | 29° |
| 2026-05-04 15:12 | 32.24047 | -12.17995 | 36097 ft | 519 kts | 29° |
| 2026-05-04 15:13 | 32.29959 | -12.13139 | 36100 ft | 519 kts | 29° |
| 2026-05-04 15:13 | 32.35896 | -12.08253 | 36103 ft | 519 kts | 30° |
| 2026-05-04 15:14 | 32.41782 | -12.03403 | 36104 ft | 518 kts | 30° |
| 2026-05-04 15:14 | 32.47699 | -11.98518 | 36104 ft | 517 kts | 30° |
| 2026-05-04 15:15 | 32.53588 | -11.93649 | 36103 ft | 517 kts | 30° |
| 2026-05-04 15:15 | 32.59487 | -11.88763 | 36143 ft | 517 kts | 30° |
| 2026-05-04 15:16 | 32.68341 | -11.81415 | 36115 ft | 516 kts | 30° |
| 2026-05-04 15:17 | 32.77135 | -11.74098 | 36102 ft | 515 kts | 30° |
| 2026-05-04 15:17 | 32.85954 | -11.66744 | 36104 ft | 515 kts | 30° |
| 2026-05-04 15:18 | 32.91789 | -11.61867 | 36107 ft | 515 kts | 30° |
| 2026-05-04 15:19 | 33.00572 | -11.54512 | 36105 ft | 515 kts | 30° |
| 2026-05-04 15:19 | 33.09384 | -11.47114 | 36105 ft | 515 kts | 30° |
| 2026-05-04 15:20 | 33.15224 | -11.42201 | 36107 ft | 516 kts | 30° |
| 2026-05-04 15:20 | 33.21090 | -11.37258 | 36113 ft | 516 kts | 31° |
| 2026-05-04 15:21 | 33.26953 | -11.32308 | 36110 ft | 516 kts | 31° |
| 2026-05-04 15:22 | 33.35758 | -11.24859 | 36107 ft | 516 kts | 31° |
| 2026-05-04 15:22 | 33.44515 | -11.17434 | 36114 ft | 516 kts | 31° |
| 2026-05-04 15:23 | 33.50378 | -11.12452 | 36115 ft | 516 kts | 31° |
| 2026-05-04 15:23 | 33.56253 | -11.07451 | 36111 ft | 516 kts | 31° |
| 2026-05-04 15:24 | 33.67929 | -10.97486 | 36112 ft | 516 kts | 31° |
| 2026-05-04 15:25 | 33.73782 | -10.92478 | 36140 ft | 516 kts | 31° |
| 2026-05-04 15:26 | 33.82540 | -10.84970 | 36116 ft | 517 kts | 31° |
| 2026-05-04 15:26 | 33.91342 | -10.77403 | 36112 ft | 517 kts | 31° |
| 2026-05-04 15:27 | 34.00112 | -10.69844 | 36111 ft | 517 kts | 31° |
| 2026-05-04 15:28 | 34.08900 | -10.62250 | 36121 ft | 518 kts | 31° |
| 2026-05-04 15:29 | 34.17669 | -10.54653 | 36112 ft | 519 kts | 31° |
| 2026-05-04 15:30 | 34.38202 | -10.36786 | 36116 ft | 520 kts | 30° |
| 2026-05-04 15:31 | 34.47010 | -10.29087 | 36113 ft | 520 kts | 31° |
| 2026-05-04 15:32 | 34.61639 | -10.16256 | 36107 ft | 520 kts | 30° |
| 2026-05-04 15:34 | 34.76257 | -10.03377 | 36112 ft | 519 kts | 30° |
| 2026-05-04 15:34 | 34.84989 | -9.95657 | 36149 ft | 518 kts | 30° |
| 2026-05-04 15:35 | 34.93740 | -9.87898 | 36113 ft | 516 kts | 30° |
| 2026-05-04 15:36 | 35.02431 | -9.80172 | 36102 ft | 515 kts | 30° |
| 2026-05-04 15:36 | 35.08188 | -9.75043 | 36112 ft | 515 kts | 30° |
| 2026-05-04 15:37 | 35.13988 | -9.69868 | 36135 ft | 515 kts | 30° |
| 2026-05-04 15:37 | 35.19775 | -9.64693 | 36111 ft | 515 kts | 30° |
| 2026-05-04 15:38 | 35.25521 | -9.59546 | 36113 ft | 514 kts | 30° |
| 2026-05-04 15:38 | 35.31301 | -9.54358 | 36108 ft | 513 kts | 30° |
| 2026-05-04 15:39 | 35.37027 | -9.49211 | 36107 ft | 513 kts | 30° |
| 2026-05-04 15:40 | 35.45666 | -9.41428 | 36106 ft | 513 kts | 29° |
| 2026-05-04 15:40 | 35.51422 | -9.36230 | 36104 ft | 513 kts | 29° |
| 2026-05-04 15:41 | 35.57175 | -9.31024 | 36104 ft | 513 kts | 29° |
| 2026-05-04 15:41 | 35.61957 | -9.26691 | 36102 ft | 513 kts | 30° |
| 2026-05-04 15:42 | 35.67681 | -9.21494 | 36103 ft | 513 kts | 30° |
| 2026-05-04 15:42 | 35.73432 | -9.16264 | 36103 ft | 513 kts | 30° |
| 2026-05-04 15:43 | 35.79194 | -9.11014 | 36099 ft | 513 kts | 30° |
| 2026-05-04 15:43 | 35.84905 | -9.05801 | 36101 ft | 514 kts | 30° |
| 2026-05-04 15:44 | 35.90660 | -9.00537 | 36101 ft | 514 kts | 30° |
| 2026-05-04 15:44 | 35.96414 | -8.95255 | 36103 ft | 515 kts | 31° |
| 2026-05-04 15:45 | 36.01795 | -8.89376 | 36104 ft | 521 kts | 38° |
| 2026-05-04 15:45 | 36.06999 | -8.83115 | 36096 ft | 521 kts | 38° |
| 2026-05-04 15:46 | 36.12202 | -8.76876 | 36093 ft | 520 kts | 38° |
| 2026-05-04 15:46 | 36.17410 | -8.70726 | 36098 ft | 520 kts | 37° |
| 2026-05-04 15:47 | 36.22678 | -8.64536 | 36092 ft | 520 kts | 38° |
| 2026-05-04 15:48 | 36.33097 | -8.52247 | 36085 ft | 519 kts | 38° |
| 2026-05-04 15:48 | 36.40936 | -8.42961 | 36081 ft | 519 kts | 38° |
| 2026-05-04 15:49 | 36.45710 | -8.36207 | 36127 ft | 525 kts | 49° |
| 2026-05-04 15:49 | 36.50031 | -8.28840 | 36077 ft | 527 kts | 50° |
| 2026-05-04 15:50 | 36.54339 | -8.21463 | 36070 ft | 527 kts | 49° |
| 2026-05-04 15:50 | 36.58682 | -8.14171 | 36062 ft | 526 kts | 49° |
| 2026-05-04 15:51 | 36.63072 | -8.06856 | 36060 ft | 526 kts | 49° |
| 2026-05-04 15:51 | 36.67425 | -7.99591 | 36056 ft | 526 kts | 49° |
| 2026-05-04 15:52 | 36.71803 | -7.92259 | 36054 ft | 526 kts | 49° |
| 2026-05-04 15:52 | 36.76169 | -7.84923 | 36036 ft | 526 kts | 49° |
| 2026-05-04 15:53 | 36.80502 | -7.77626 | 36047 ft | 525 kts | 49° |
| 2026-05-04 15:53 | 36.84853 | -7.70286 | 36043 ft | 524 kts | 49° |
| 2026-05-04 15:54 | 36.89190 | -7.62954 | 36035 ft | 524 kts | 49° |
| 2026-05-04 15:54 | 36.93525 | -7.55610 | 36033 ft | 524 kts | 49° |
| 2026-05-04 15:55 | 36.97826 | -7.48305 | 36024 ft | 524 kts | 49° |
| 2026-05-04 15:55 | 37.02159 | -7.40932 | 36039 ft | 525 kts | 49° |
| 2026-05-04 15:56 | 37.07044 | -7.34342 | 36027 ft | 515 kts | 36° |
| 2026-05-04 15:56 | 37.12470 | -7.28494 | 36014 ft | 514 kts | 34° |
| 2026-05-04 15:57 | 37.17899 | -7.22664 | 36019 ft | 514 kts | 35° |
| 2026-05-04 15:57 | 37.23305 | -7.16756 | 36013 ft | 515 kts | 36° |
| 2026-05-04 15:58 | 37.28695 | -7.10801 | 36033 ft | 516 kts | 36° |
| 2026-05-04 15:58 | 37.34048 | -7.04864 | 36023 ft | 516 kts | 36° |
| 2026-05-04 15:59 | 37.39430 | -6.98887 | 36012 ft | 515 kts | 36° |
| 2026-05-04 15:59 | 37.44814 | -6.92901 | 36014 ft | 515 kts | 36° |
| 2026-05-04 16:00 | 37.50151 | -6.86957 | 36007 ft | 515 kts | 36° |
| 2026-05-04 16:00 | 37.55407 | -6.80798 | 36015 ft | 517 kts | 39° |
| 2026-05-04 16:01 | 37.60568 | -6.74415 | 36015 ft | 518 kts | 39° |
| 2026-05-04 16:01 | 37.65709 | -6.68058 | 36011 ft | 517 kts | 39° |
| 2026-05-04 16:02 | 37.70849 | -6.61756 | 36009 ft | 517 kts | 39° |
| 2026-05-04 16:03 | 37.78613 | -6.52260 | 36036 ft | 517 kts | 39° |
| 2026-05-04 16:03 | 37.83779 | -6.45924 | 36017 ft | 517 kts | 39° |
| 2026-05-04 16:04 | 37.88908 | -6.39618 | 36009 ft | 517 kts | 39° |
| 2026-05-04 16:04 | 37.96644 | -6.30079 | 36017 ft | 517 kts | 39° |
| 2026-05-04 16:05 | 38.01805 | -6.23700 | 36015 ft | 517 kts | 39° |
| 2026-05-04 16:06 | 38.09503 | -6.14158 | 36012 ft | 517 kts | 39° |
| 2026-05-04 16:07 | 38.19799 | -6.01352 | 36012 ft | 517 kts | 40° |
| 2026-05-04 16:08 | 38.30053 | -5.88545 | 36002 ft | 518 kts | 40° |
| 2026-05-04 16:09 | 38.42874 | -5.72453 | 35998 ft | 518 kts | 40° |
| 2026-05-04 16:10 | 38.53165 | -5.59478 | 36022 ft | 520 kts | 40° |
| 2026-05-04 16:11 | 38.63430 | -5.46479 | 35986 ft | 521 kts | 40° |
| 2026-05-04 16:12 | 38.78819 | -5.26886 | 36015 ft | 520 kts | 40° |
| 2026-05-04 16:13 | 38.89075 | -5.13758 | 35973 ft | 520 kts | 40° |
| 2026-05-04 16:14 | 38.99279 | -5.00640 | 35973 ft | 519 kts | 41° |
| 2026-05-04 16:16 | 39.12001 | -4.84203 | 35975 ft | 519 kts | 41° |
| 2026-05-04 16:16 | 39.19794 | -4.74531 | 35954 ft | 511 kts | 27° |
| 2026-05-04 16:17 | 39.26161 | -4.70855 | 35957 ft | 500 kts | 15° |
| 2026-05-04 16:18 | 39.35793 | -4.66023 | 35126 ft | 483 kts | 15° |
| 2026-05-04 16:18 | 39.38880 | -4.64421 | 35048 ft | 470 kts | 15° |
| 2026-05-04 16:19 | 39.47687 | -4.59800 | 34436 ft | 447 kts | 15° |
| 2026-05-04 16:19 | 39.53409 | -4.56802 | 33535 ft | 445 kts | 15° |
| 2026-05-04 16:20 | 39.61982 | -4.52289 | 32301 ft | 437 kts | 15° |
| 2026-05-04 16:20 | 39.67558 | -4.49345 | 31535 ft | 432 kts | 15° |
| 2026-05-04 16:21 | 39.75856 | -4.44956 | 30479 ft | 424 kts | 16° |
| 2026-05-04 16:22 | 39.81261 | -4.42090 | 29758 ft | 419 kts | 16° |
| 2026-05-04 16:22 | 39.89264 | -4.37834 | 28577 ft | 409 kts | 16° |
| 2026-05-04 16:23 | 39.97072 | -4.33705 | 27483 ft | 398 kts | 12° |
| 2026-05-04 16:24 | 40.07650 | -4.31306 | 26013 ft | 379 kts | 2° |
| 2026-05-04 16:25 | 40.12815 | -4.30240 | 25313 ft | 375 kts | 4° |
| 2026-05-04 16:26 | 40.21855 | -4.24750 | 23902 ft | 390 kts | 64° |
| 2026-05-04 16:26 | 40.21650 | -4.14747 | 22870 ft | 370 kts | 126° |
| 2026-05-04 16:27 | 40.17915 | -4.10559 | 22083 ft | 347 kts | 163° |
| 2026-05-04 16:28 | 40.11193 | -4.07317 | 20934 ft | 344 kts | 153° |
| 2026-05-04 16:28 | 40.07812 | -3.99116 | 19404 ft | 362 kts | 100° |
| 2026-05-04 16:29 | 40.06629 | -3.85771 | 16467 ft | 372 kts | 98° |
| 2026-05-04 16:30 | 40.05677 | -3.75791 | 14618 ft | 363 kts | 98° |
| 2026-05-04 16:31 | 40.05040 | -3.69291 | 13468 ft | 356 kts | 98° |
| 2026-05-04 16:31 | 40.06301 | -3.60270 | 11665 ft | 343 kts | 48° |
| 2026-05-04 16:32 | 40.10687 | -3.54418 | 10187 ft | 334 kts | 43° |
| 2026-05-04 16:33 | 40.14442 | -3.49432 | 8823 ft | 328 kts | 44° |
| 2026-05-04 16:33 | 40.17163 | -3.46008 | 7827 ft | 322 kts | 30° |
| 2026-05-04 16:34 | 40.21208 | -3.43787 | 6726 ft | 314 kts | 18° |
| 2026-05-04 16:34 | 40.23234 | -3.42753 | 6139 ft | 305 kts | 19° |
| 2026-05-04 16:35 | 40.28755 | -3.39872 | 4366 ft | 272 kts | 18° |
| 2026-05-04 16:35 | 40.33081 | -3.41814 | 3934 ft | 210 kts | 317° |
| 2026-05-04 16:36 | 40.34175 | -3.42971 | 3959 ft | 196 kts | 316° |
| 2026-05-04 16:36 | 40.36206 | -3.45060 | 3929 ft | 175 kts | 318° |
| 2026-05-04 16:37 | 40.38081 | -3.46977 | 3929 ft | 168 kts | 318° |
| 2026-05-04 16:37 | 40.39013 | -3.47929 | 3802 ft | 169 kts | 319° |
| 2026-05-04 16:37 | 40.40746 | -3.49696 | 3382 ft | 147 kts | 317° |
| 2026-05-04 16:38 | 40.42435 | -3.51543 | 2949 ft | 167 kts | 317° |
| 2026-05-04 16:39 | 40.44903 | -3.53967 | 2310 ft | 132 kts | 319° |
| 2026-05-04 16:39 | 40.46375 | -3.55448 | 1999 ft | 126 kts | 319° |
| 2026-05-04 16:40 | 40.47355 | -3.56451 | 1988 ft | 45 kts | 321° |
| 2026-05-04 16:40 | 40.47556 | -3.56848 | 1991 ft | 15 kts | 245° |
| 2026-05-04 16:41 | 40.47416 | -3.56779 | 1988 ft | 10 kts | 143° |
| 2026-05-04 16:41 | 40.47279 | -3.56935 | 1986 ft | 8 kts | 246° |
| 2026-05-04 16:42 | 40.47271 | -3.57019 | 1987 ft | 0 kts | 263° |